RJOO/ITM METAR and TAF weather

Enter ICAO airport designator
Station Type Date Time Source
RJOO METAR 2019/11/22 01:00 UTC NOAA

RJOO 220100Z 05005KT 010V100 9999 FEW015 BKN045 BKN060 13/08 Q1028


Station Type Date Time Source
RJOO Decoded METAR 2019/11/22 01:00 UTC NOAA

Osaka International Airport, Japan (RJOO) 34-47N 135-27E 15M
Nov 21, 2019 - 08:00 PM EST / 2019.11.22 0100 UTC
Wind: from the NE (050 degrees) at 6 MPH (5 KT) (direction variable):0
Visibility: greater than 7 mile(s):0
Sky conditions: mostly cloudy
Temperature: 55 F (13 C)
Dew Point: 46 F (8 C)
Relative Humidity: 71%
Pressure (altimeter): 30.36 in. Hg (1028 hPa)
ob: RJOO 220100Z 05005KT 010V100 9999 FEW015 BKN045 BKN060 13/08 Q1028
cycle: 1

Station Type Date Time Source
RJOO TAF 2019/11/21 18:29 UTC NOAA

TAF RJOO 211706Z 2118/2300 32004KT 9999 FEW030

Example: see airport list